createdAt,value
2023-05-18T05:02:09.708Z,98814.25
2023-05-18T05:07:11.421Z,98820.06
2023-05-18T05:12:20.150Z,98825.19
2023-05-18T05:17:22.740Z,98826.66
2023-05-18T05:22:24.335Z,98835.53
2023-05-18T05:27:26.783Z,98836.19
2023-05-18T05:32:28.509Z,98839.06
2023-05-18T05:37:30.147Z,98839.00
2023-05-18T05:42:32.192Z,98845.81
2023-05-18T05:47:33.897Z,98844.59
2023-05-18T05:52:35.515Z,98843.22
2023-05-18T05:57:42.452Z,98843.97
2023-05-18T06:02:44.266Z,98850.34
2023-05-18T06:07:46.131Z,98852.75
2023-05-18T06:12:47.855Z,98848.16
2023-05-18T06:17:50.008Z,98846.59
2023-05-18T06:22:51.905Z,98852.31
2023-05-18T06:28:02.052Z,98859.75
2023-05-18T06:33:26.434Z,98862.81
2023-05-18T06:38:28.006Z,98869.03
2023-05-18T06:43:29.683Z,98871.59
2023-05-18T06:48:38.628Z,98877.81
2023-05-18T06:53:40.250Z,98883.03
2023-05-18T06:58:42.886Z,98880.41
2023-05-18T07:03:44.964Z,98890.78
2023-05-18T07:08:47.722Z,98896.34
2023-05-18T07:13:49.104Z,98889.34
2023-05-18T07:18:50.776Z,98889.88
2023-05-18T07:23:52.998Z,98889.72
2023-05-18T07:28:55.227Z,98886.22
2023-05-18T07:33:56.732Z,98880.69
2023-05-18T07:38:59.018Z,98877.81
2023-05-18T07:44:00.657Z,98873.31
2023-05-18T07:49:02.185Z,98873.13
2023-05-18T07:54:05.106Z,98872.75
2023-05-18T07:59:07.252Z,98879.75
2023-05-18T08:04:08.969Z,98879.44
2023-05-18T08:09:10.620Z,98878.69
2023-05-18T08:14:12.149Z,98887.19
2023-05-18T08:19:13.810Z,98879.19
2023-05-18T08:24:15.407Z,98882.50
2023-05-18T08:29:17.083Z,98877.78
2023-05-18T08:34:18.631Z,98868.56
2023-05-18T08:39:21.289Z,98865.00
2023-05-18T08:44:25.783Z,98864.66
2023-05-18T08:49:27.904Z,98878.53
2023-05-18T08:54:30.742Z,98872.13
2023-05-18T08:59:36.467Z,98867.13
2023-05-18T09:04:38.429Z,98871.28
2023-05-18T09:09:40.818Z,98865.66
2023-05-18T09:14:43.057Z,98865.41
2023-05-18T09:19:44.570Z,98860.16
2023-05-18T09:24:46.430Z,98858.28
2023-05-18T09:29:58.338Z,98856.31
2023-05-18T09:35:04.902Z,98850.13
2023-05-18T09:40:07.873Z,98856.72
2023-05-18T09:45:17.389Z,98854.78
2023-05-18T09:50:20.739Z,98851.31
2023-05-18T09:55:22.347Z,98859.16
2023-05-18T10:00:25.917Z,98852.75
2023-05-18T10:05:33.234Z,98845.09
2023-05-18T10:10:38.947Z,98859.38
2023-05-18T10:15:56.334Z,98845.88
2023-05-18T10:21:02.998Z,98843.81
2023-05-18T10:26:07.087Z,98834.81
2023-05-18T10:31:09.228Z,98832.59
2023-05-18T10:36:11.432Z,98815.50
2023-05-18T10:41:14.016Z,98823.69
2023-05-18T10:46:16.664Z,98819.19
2023-05-18T10:51:20.136Z,98818.66
2023-05-18T10:56:23.687Z,98819.56
2023-05-18T11:01:25.455Z,98826.00
2023-05-18T11:06:27.314Z,98821.72
2023-05-18T11:11:29.958Z,98821.94
2023-05-18T11:16:36.410Z,98808.03
2023-05-18T11:21:41.327Z,98804.25
2023-05-18T11:26:44.933Z,98791.84
2023-05-18T11:31:48.067Z,98789.03
2023-05-18T11:36:56.254Z,98787.41
2023-05-18T11:42:02.633Z,98796.13
2023-05-18T11:47:05.454Z,98797.00
2023-05-18T11:52:23.665Z,98794.13
2023-05-18T11:57:34.368Z,98786.28
2023-05-18T12:02:36.134Z,98791.88
2023-05-18T12:07:39.465Z,98785.84
2023-05-18T12:12:41.666Z,98786.25
2023-05-18T12:17:43.136Z,98780.88
2023-05-18T12:22:50.135Z,98786.44
2023-05-18T12:27:53.374Z,98781.91
2023-05-18T12:32:56.801Z,98771.47
2023-05-18T12:38:02.651Z,98779.16
2023-05-18T12:43:04.680Z,98778.56
2023-05-18T12:48:11.319Z,98775.00
2023-05-18T12:53:13.504Z,98771.72
2023-05-18T12:58:19.517Z,98767.13
2023-05-18T13:03:24.525Z,98770.81
2023-05-18T13:08:26.218Z,98767.28
2023-05-18T13:13:27.824Z,98764.66
2023-05-18T13:18:29.351Z,98763.78
2023-05-18T13:23:31.008Z,98765.66
2023-05-18T13:28:32.552Z,98765.53
2023-05-18T13:33:34.127Z,98763.72
2023-05-18T13:38:37.212Z,98767.06
2023-05-18T13:43:38.806Z,98763.63
2023-05-18T13:48:40.303Z,98768.56
2023-05-18T13:53:41.813Z,98762.88
2023-05-18T13:58:44.574Z,98744.38
2023-05-18T14:03:46.073Z,98755.09
2023-05-18T14:08:47.572Z,98749.06
2023-05-18T14:13:50.288Z,98761.88
2023-05-18T14:18:51.842Z,98744.88
2023-05-18T14:23:53.374Z,98743.50
2023-05-18T14:28:55.062Z,98746.22
2023-05-18T14:33:56.625Z,98752.19
2023-05-18T14:38:58.133Z,98760.56
2023-05-18T14:43:59.679Z,98745.28
2023-05-18T14:49:01.222Z,98742.69
2023-05-18T14:54:02.758Z,98734.75
2023-05-18T14:59:04.283Z,98744.81
2023-05-18T15:04:05.798Z,98741.88
2023-05-18T15:09:08.230Z,98740.47
2023-05-18T15:14:09.912Z,98738.50
2023-05-18T15:19:11.535Z,98745.28
2023-05-18T15:24:13.123Z,98743.00
2023-05-18T15:29:14.619Z,98736.53
2023-05-18T15:34:16.262Z,98741.78
2023-05-18T15:39:17.791Z,98734.97
2023-05-18T15:44:19.322Z,98732.84
2023-05-18T15:49:21.666Z,98721.16
2023-05-18T15:54:23.143Z,98728.88
2023-05-18T15:59:24.700Z,98713.16
2023-05-18T16:04:26.211Z,98710.53
2023-05-18T16:09:27.987Z,98706.41
2023-05-18T16:14:29.545Z,98714.34
2023-05-18T16:19:33.119Z,98712.25
2023-05-18T16:24:35.065Z,98698.34
2023-05-18T16:29:36.591Z,98697.91
2023-05-18T16:34:38.114Z,98703.50
2023-05-18T16:39:39.596Z,98713.06
2023-05-18T16:44:41.104Z,98705.59
2023-05-18T16:49:45.206Z,98697.91
2023-05-18T16:54:46.929Z,98696.03
2023-05-18T16:59:48.428Z,98693.13
2023-05-18T17:04:50.382Z,98687.66
2023-05-18T17:09:51.871Z,98697.00
2023-05-18T17:14:53.327Z,98695.75
2023-05-18T17:19:55.041Z,98697.44
2023-05-18T17:24:56.539Z,98700.84
2023-05-18T17:29:58.087Z,98699.38
2023-05-18T17:34:59.606Z,98705.63
2023-05-18T17:40:01.073Z,98703.13
2023-05-18T17:45:02.845Z,98710.16
2023-05-18T17:50:04.766Z,98714.31
2023-05-18T17:55:06.900Z,98702.00
2023-05-18T18:00:10.188Z,98704.03
2023-05-18T18:05:13.012Z,98705.41
2023-05-18T18:10:15.312Z,98706.19
2023-05-18T18:15:17.203Z,98709.00
2023-05-18T18:20:18.778Z,98706.06
2023-05-18T18:25:20.217Z,98708.09
2023-05-18T18:30:21.994Z,98716.72
2023-05-18T18:35:23.557Z,98716.22
2023-05-18T18:40:25.165Z,98718.03
2023-05-18T18:45:28.952Z,98721.91
2023-05-18T18:50:31.752Z,98729.28
2023-05-18T18:55:33.733Z,98714.47
2023-05-18T19:00:35.578Z,98721.03
2023-05-18T19:05:37.318Z,98728.22
2023-05-18T19:10:38.806Z,98728.31
2023-05-18T19:15:40.325Z,98730.13
2023-05-18T19:20:41.783Z,98743.53
2023-05-18T19:25:43.480Z,98746.16
2023-05-18T19:30:44.961Z,98750.03
2023-05-18T19:35:46.542Z,98748.78
2023-05-18T19:40:48.004Z,98750.34
2023-05-18T19:45:50.078Z,98759.19
2023-05-18T19:50:51.609Z,98757.88
2023-05-18T19:55:53.117Z,98769.38
2023-05-18T20:00:54.821Z,98763.94
2023-05-18T20:05:56.503Z,98762.16
2023-05-18T20:10:58.620Z,98759.59
2023-05-18T20:16:02.717Z,98764.03
2023-05-18T20:21:04.236Z,98766.09
2023-05-18T20:26:06.586Z,98768.50
2023-05-18T20:31:08.086Z,98767.19
2023-05-18T20:36:10.395Z,98761.34
2023-05-18T20:41:11.889Z,98785.25
2023-05-18T20:46:16.995Z,98778.09
2023-05-18T20:51:20.433Z,98774.88
2023-05-18T20:56:24.031Z,98772.47
2023-05-18T21:01:28.681Z,98776.03
2023-05-18T21:06:30.831Z,98771.06
2023-05-18T21:11:32.687Z,98771.06
2023-05-18T21:16:34.274Z,98761.63
2023-05-18T21:21:35.838Z,98762.91
2023-05-18T21:26:37.334Z,98764.56
2023-05-18T21:31:38.916Z,98752.16
2023-05-18T21:36:41.503Z,98755.88
2023-05-18T21:41:44.334Z,98753.38
2023-05-18T21:46:45.953Z,98756.25
2023-05-18T21:51:47.468Z,98755.59
2023-05-18T21:56:48.936Z,98747.06
